Time;durP1;ratioP1;P1;durP2;ratioP2;P2;SDS_P1;SDS_P2;PMS_P1;PMS_P2;Temp;Humidity;BMP_temperature;BMP_pressure;BME280_temperature;BME280_humidity;BME280_pressure;Samples;Min_cycle;Max_cycle;Signal;HPM_P1;HPM_P2
2022/06/25 00:07:44;;;;;;;3.8;5.6;;;;;;;16.9;100;98090;;;;
2022/06/25 00:17:44;;;;;;;3.8;5.6;;;;;;;16.8;100;98100;;;;
2022/06/25 00:28:44;;;;;;;3.8;5.6;;;;;;;16.5;100;98090;;;;
2022/06/25 00:39:44;;;;;;;4.3;6.9;;;;;;;16.5;100;98090;;;;
2022/06/25 00:50:44;;;;;;;4.3;6.9;;;;;;;16.4;100;98090;;;;
2022/06/25 01:01:44;;;;;;;3.7;6.8;;;;;;;16.1;100;98080;;;;
2022/06/25 01:12:44;;;;;;;3.7;6.8;;;;;;;15.9;100;98090;;;;
2022/06/25 01:22:44;;;;;;;3.7;6.8;;;;;;;15.7;100;98090;;;;
2022/06/25 01:33:44;;;;;;;4.7;8.7;;;;;;;15.6;100;98090;;;;
2022/06/25 01:43:44;;;;;;;4.7;8.7;;;;;;;15.4;100;98090;;;;
2022/06/25 01:54:44;;;;;;;4.7;8.7;;;;;;;15;100;98100;;;;
2022/06/25 02:05:59;;;;;;;5.5;9;;;;;;;14.8;100;98110;;;;
2022/06/25 02:15:44;;;;;;;5.5;9;;;;;;;14.7;100;98120;;;;
2022/06/25 02:25:44;;;;;;;5.5;9;;;;;;;14.5;100;98120;;;;
2022/06/25 02:36:44;;;;;;;4.9;8.8;;;;;;;14.4;100;98130;;;;
2022/06/25 02:46:44;;;;;;;4.9;8.8;;;;;;;14.4;100;98130;;;;
2022/06/25 03:06:44;;;;;;;4.4;7.1;;;;;;;14.6;100;98130;;;;
2022/06/25 03:16:44;;;;;;;4.4;7.1;;;;;;;14.6;100;98140;;;;
2022/06/25 03:27:44;;;;;;;4.4;7.1;;;;;;;14.9;100;98140;;;;
2022/06/25 03:37:44;;;;;;;4.4;6.4;;;;;;;15.2;100;98150;;;;
2022/06/25 03:48:44;;;;;;;4.4;6.4;;;;;;;15.7;100;98160;;;;
2022/06/25 03:59:44;;;;;;;4.5;7.8;;;;;;;16.2;100;98160;;;;
2022/06/25 04:09:44;;;;;;;4.5;7.8;;;;;;;16.6;100;98160;;;;
2022/06/25 04:20:44;;;;;;;4.5;7.8;;;;;;;17;100;98160;;;;
2022/06/25 04:30:44;;;;;;;4.5;7.5;;;;;;;17.2;100;98180;;;;
2022/06/25 04:40:44;;;;;;;4.5;7.5;;;;;;;17.6;100;98190;;;;
2022/06/25 04:51:44;;;;;;;4.5;7.5;;;;;;;18.3;100;98190;;;;
2022/06/25 05:02:44;;;;;;;4.4;8.3;;;;;;;18.6;100;98190;;;;
2022/06/25 05:13:44;;;;;;;4.4;8.3;;;;;;;18.9;100;98190;;;;
2022/06/25 05:24:44;;;;;;;4.4;8.3;;;;;;;19.3;100;98190;;;;
2022/06/25 05:34:44;;;;;;;4.4;9.4;;;;;;;19.5;100;98190;;;;
2022/06/25 05:45:44;;;;;;;4.4;9.4;;;;;;;20;100;98190;;;;
2022/06/25 05:55:44;;;;;;;4.4;9.4;;;;;;;20.3;100;98200;;;;
2022/06/25 06:05:44;;;;;;;3.7;8;;;;;;;20.6;100;98200;;;;
2022/06/25 06:15:44;;;;;;;3.7;8;;;;;;;21.3;100;98210;;;;
2022/06/25 06:26:44;;;;;;;3.7;8;;;;;;;22.2;100;98220;;;;
2022/06/25 06:37:44;;;;;;;3.3;7.1;;;;;;;22.7;100;98230;;;;
2022/06/25 06:48:44;;;;;;;3.3;7.1;;;;;;;23.3;100;98230;;;;
2022/06/25 06:58:44;;;;;;;3.3;7.1;;;;;;;23.6;100;98220;;;;
2022/06/25 07:08:44;;;;;;;3.6;5.9;;;;;;;24;100;98220;;;;
2022/06/25 07:18:44;;;;;;;3.6;5.9;;;;;;;24.2;100;98220;;;;
2022/06/25 07:29:44;;;;;;;3.4;6.4;;;;;;;25;100;98220;;;;
2022/06/25 07:40:44;;;;;;;3.4;6.4;;;;;;;25.1;100;98210;;;;
2022/06/25 08:00:44;;;;;;;2.4;4.6;;;;;;;25.6;99.3;98210;;;;
2022/06/25 08:10:44;;;;;;;2.4;4.6;;;;;;;25.9;94.8;98220;;;;
2022/06/25 08:21:44;;;;;;;2.4;4.6;;;;;;;26.1;93.6;98220;;;;
2022/06/25 08:32:44;;;;;;;2.4;4.4;;;;;;;26.6;86;98220;;;;
2022/06/25 08:42:44;;;;;;;2.4;4.4;;;;;;;26.9;82.4;98230;;;;
2022/06/25 08:53:44;;;;;;;2.4;4.4;;;;;;;26.9;71.6;98220;;;;
2022/06/25 09:03:44;;;;;;;1.8;4.1;;;;;;;27.2;72;98230;;;;
2022/06/25 09:14:44;;;;;;;1.8;4.1;;;;;;;27.4;71.8;98230;;;;
2022/06/25 09:25:44;;;;;;;1.8;4.1;;;;;;;27.3;74.3;98230;;;;
2022/06/25 09:35:44;;;;;;;2.2;4.6;;;;;;;26.9;75.9;98230;;;;
2022/06/25 09:46:44;;;;;;;2.2;4.6;;;;;;;27.2;75.7;98240;;;;
2022/06/25 09:57:45;;;;;;;2.2;4.6;;;;;;;27.9;70.5;98230;;;;
2022/06/25 10:08:44;;;;;;;2.2;4.5;;;;;;;27.6;66.9;98220;;;;
2022/06/25 10:18:44;;;;;;;2.2;4.5;;;;;;;28.2;65.6;98220;;;;
2022/06/25 10:29:47;;;;;;;2.2;4.5;;;;;;;28;64.2;98200;;;;
2022/06/25 10:39:44;;;;;;;1.7;4.1;;;;;;;28.4;61.6;98210;;;;
2022/06/25 10:49:44;;;;;;;1.7;4.1;;;;;;;29.1;61.4;98210;;;;
2022/06/25 11:00:44;;;;;;;1.8;6.8;;;;;;;29.4;59.8;98190;;;;
2022/06/25 11:11:44;;;;;;;1.8;6.8;;;;;;;29.4;58.5;98190;;;;
2022/06/25 11:21:45;;;;;;;1.8;6.8;;;;;;;29.7;57.5;98190;;;;
2022/06/25 11:32:45;;;;;;;2.1;5;;;;;;;29.7;58.1;98190;;;;
2022/06/25 11:43:44;;;;;;;2.1;5;;;;;;;30;58.2;98180;;;;
2022/06/25 11:54:44;;;;;;;2.1;5;;;;;;;30;56.4;98170;;;;
2022/06/25 12:04:44;;;;;;;1.9;4.4;;;;;;;29.7;55.9;98170;;;;
2022/06/25 12:14:44;;;;;;;1.9;4.4;;;;;;;29.6;57.3;98170;;;;
2022/06/25 12:24:44;;;;;;;1.9;4.4;;;;;;;30.1;55.3;98160;;;;
2022/06/25 12:34:44;;;;;;;1.9;4.4;;;;;;;30.7;55.7;98160;;;;
2022/06/25 12:45:44;;;;;;;1.9;4.4;;;;;;;30.8;53.7;98150;;;;
2022/06/25 12:56:44;;;;;;;1.9;4.4;;;;;;;31.1;53.3;98160;;;;
2022/06/25 13:07:44;;;;;;;2;5.2;;;;;;;31.2;52.3;98150;;;;
2022/06/25 13:18:44;;;;;;;2;5.2;;;;;;;32.8;52.3;98140;;;;
2022/06/25 13:29:45;;;;;;;2;5.2;;;;;;;32.4;48.2;98150;;;;
2022/06/25 13:40:45;;;;;;;1.8;4;;;;;;;32.2;50.5;98150;;;;
2022/06/25 13:51:45;;;;;;;1.8;4;;;;;;;33;49.2;98130;;;;
2022/06/25 14:02:45;;;;;;;2.4;4.6;;;;;;;32.4;49.1;98130;;;;
2022/06/25 14:12:44;;;;;;;2.4;4.6;;;;;;;32;49;98130;;;;
2022/06/25 14:22:44;;;;;;;2.4;4.6;;;;;;;31.5;49.8;98120;;;;
2022/06/25 14:33:44;;;;;;;2.8;4.9;;;;;;;30.7;53.4;98120;;;;
2022/06/25 14:44:44;;;;;;;2.8;4.9;;;;;;;30.6;52.3;98130;;;;
2022/06/25 14:55:44;;;;;;;2.8;4.9;;;;;;;30.6;52.7;98130;;;;
2022/06/25 15:05:46;;;;;;;2.7;4.9;;;;;;;29.8;54.8;98120;;;;
2022/06/25 15:15:44;;;;;;;2.7;4.9;;;;;;;29.5;58.2;98110;;;;
2022/06/25 15:25:44;;;;;;;2.7;4.9;;;;;;;29.3;59.2;98120;;;;
2022/06/25 15:36:44;;;;;;;2.5;6.6;;;;;;;29.4;58.6;98110;;;;
2022/06/25 15:46:44;;;;;;;2.5;6.6;;;;;;;29.6;58.8;98110;;;;
2022/06/25 15:57:45;;;;;;;2.5;6.6;;;;;;;29.4;57.3;98110;;;;
2022/06/25 16:08:44;;;;;;;2.4;5.5;;;;;;;30.3;57.1;98120;;;;
2022/06/25 16:18:44;;;;;;;2.4;5.5;;;;;;;30.2;56.7;98120;;;;
2022/06/25 16:28:44;;;;;;;2.4;5.5;;;;;;;29.8;58.9;98130;;;;
2022/06/25 16:38:44;;;;;;;2.1;4.7;;;;;;;29;60.3;98130;;;;
2022/06/25 16:49:44;;;;;;;2.1;4.7;;;;;;;28.4;61;98120;;;;
2022/06/25 16:59:45;;;;;;;2.1;4.7;;;;;;;28.2;61.7;98130;;;;
2022/06/25 17:09:44;;;;;;;3.5;6.2;;;;;;;28.4;62.6;98130;;;;
2022/06/25 17:20:44;;;;;;;3.5;6.2;;;;;;;28.2;64;98130;;;;
2022/06/25 17:30:45;;;;;;;3.5;6.2;;;;;;;28.9;62.9;98140;;;;
2022/06/25 17:41:44;;;;;;;3.4;6.3;;;;;;;31;58.5;98150;;;;
2022/06/25 17:52:44;;;;;;;3.4;6.3;;;;;;;30.7;57.4;98150;;;;
2022/06/25 18:03:44;;;;;;;3.8;7.7;;;;;;;31;56.3;98160;;;;
2022/06/25 18:14:44;;;;;;;3.8;7.7;;;;;;;29;61.4;98160;;;;
2022/06/25 18:25:44;;;;;;;3.8;7.7;;;;;;;27.5;65.1;98170;;;;
2022/06/25 18:35:44;;;;;;;3.4;6.3;;;;;;;26.5;72.1;98180;;;;
2022/06/25 18:45:44;;;;;;;3.4;6.3;;;;;;;25.5;76.9;98190;;;;
2022/06/25 18:55:44;;;;;;;3.4;6.3;;;;;;;24.7;81.2;98200;;;;
2022/06/25 19:06:44;;;;;;;5.6;9.3;;;;;;;23.9;86.3;98220;;;;
2022/06/25 19:16:44;;;;;;;5.6;9.3;;;;;;;23.5;89.3;98220;;;;
2022/06/25 19:26:44;;;;;;;5.6;9.3;;;;;;;23.5;89;98250;;;;
2022/06/25 19:36:45;;;;;;;5.5;10.1;;;;;;;23.4;89.4;98250;;;;
2022/06/25 19:47:44;;;;;;;5.5;10.1;;;;;;;23.1;90.5;98250;;;;
2022/06/25 19:58:44;;;;;;;5.5;10.1;;;;;;;22.8;93.7;98250;;;;
2022/06/25 20:08:44;;;;;;;4.2;7.6;;;;;;;22.7;95;98260;;;;
2022/06/25 20:19:44;;;;;;;4.2;7.6;;;;;;;22.5;97.9;98250;;;;
2022/06/25 20:30:44;;;;;;;4.2;7.6;;;;;;;22.5;98.2;98250;;;;
2022/06/25 20:41:45;;;;;;;4.8;7.3;;;;;;;22.5;96.9;98250;;;;
2022/06/25 20:52:44;;;;;;;4.8;7.3;;;;;;;22.5;96.8;98260;;;;
2022/06/25 21:13:44;;;;;;;4.5;7.1;;;;;;;22.5;95.2;98270;;;;
2022/06/25 21:24:44;;;;;;;4.5;7.1;;;;;;;22.5;94.3;98280;;;;
2022/06/25 21:35:44;;;;;;;3.7;5.8;;;;;;;22.5;95.5;98270;;;;
2022/06/25 21:45:44;;;;;;;3.7;5.8;;;;;;;22.4;98.8;98280;;;;
2022/06/25 21:55:44;;;;;;;3.7;5.8;;;;;;;22.1;100;98270;;;;
2022/06/25 22:06:44;;;;;;;5;8.9;;;;;;;21.6;100;98290;;;;
2022/06/25 22:16:44;;;;;;;5;8.9;;;;;;;21.2;100;98300;;;;
2022/06/25 22:27:44;;;;;;;5;8.9;;;;;;;21.1;100;98310;;;;
2022/06/25 22:37:44;;;;;;;5.7;11.5;;;;;;;20.6;100;98320;;;;
2022/06/25 22:48:44;;;;;;;5.7;11.5;;;;;;;20.3;100;98310;;;;
2022/06/25 22:58:44;;;;;;;5.7;11.5;;;;;;;20;100;98310;;;;
2022/06/25 23:08:44;;;;;;;5;9.2;;;;;;;19.8;100;98320;;;;
2022/06/25 23:19:44;;;;;;;5;9.2;;;;;;;19.5;100;98330;;;;
2022/06/25 23:29:45;;;;;;;5;9.2;;;;;;;18.9;100;98330;;;;
2022/06/25 23:39:44;;;;;;;5.9;9.7;;;;;;;18.8;100;98340;;;;
2022/06/25 23:49:44;;;;;;;5.9;9.7;;;;;;;18.6;100;98350;;;;
